sensor_id;sensor_type;location;lat;lon;timestamp;P1;durP1;ratioP1;P2;durP2;ratioP2
75716;SDS011;64333;50.138;14.332;2024-03-06T00:01:51;51.10;;;26.45;;
75716;SDS011;64333;50.138;14.332;2024-03-06T00:04:16;50.45;;;26.02;;
75716;SDS011;64333;50.138;14.332;2024-03-06T00:06:42;50.33;;;26.60;;
75716;SDS011;64333;50.138;14.332;2024-03-06T00:09:07;51.45;;;26.88;;
75716;SDS011;64333;50.138;14.332;2024-03-06T00:11:33;53.65;;;26.48;;
75716;SDS011;64333;50.138;14.332;2024-03-06T00:14:01;48.72;;;26.38;;
75716;SDS011;64333;50.138;14.332;2024-03-06T00:16:27;54.25;;;26.00;;
75716;SDS011;64333;50.138;14.332;2024-03-06T00:18:52;55.45;;;27.58;;
75716;SDS011;64333;50.138;14.332;2024-03-06T00:21:17;54.78;;;28.02;;
75716;SDS011;64333;50.138;14.332;2024-03-06T00:23:43;54.17;;;28.77;;
75716;SDS011;64333;50.138;14.332;2024-03-06T00:26:11;61.03;;;30.73;;
75716;SDS011;64333;50.138;14.332;2024-03-06T00:28:36;60.45;;;29.88;;
75716;SDS011;64333;50.138;14.332;2024-03-06T00:31:01;67.70;;;31.33;;
75716;SDS011;64333;50.138;14.332;2024-03-06T00:33:27;61.92;;;31.08;;
75716;SDS011;64333;50.138;14.332;2024-03-06T00:35:52;62.97;;;29.27;;
75716;SDS011;64333;50.138;14.332;2024-03-06T00:38:18;61.90;;;30.30;;
75716;SDS011;64333;50.138;14.332;2024-03-06T00:40:43;62.28;;;29.38;;
75716;SDS011;64333;50.138;14.332;2024-03-06T00:43:08;58.95;;;29.73;;
75716;SDS011;64333;50.138;14.332;2024-03-06T00:45:34;61.95;;;29.77;;
75716;SDS011;64333;50.138;14.332;2024-03-06T00:47:59;59.55;;;28.42;;
75716;SDS011;64333;50.138;14.332;2024-03-06T00:50:25;68.78;;;30.58;;
75716;SDS011;64333;50.138;14.332;2024-03-06T00:52:50;64.82;;;32.28;;
75716;SDS011;64333;50.138;14.332;2024-03-06T00:55:15;66.47;;;32.15;;
75716;SDS011;64333;50.138;14.332;2024-03-06T00:57:41;60.58;;;31.10;;
75716;SDS011;64333;50.138;14.332;2024-03-06T01:00:06;63.38;;;30.67;;
75716;SDS011;64333;50.138;14.332;2024-03-06T01:02:36;60.83;;;31.15;;
75716;SDS011;64333;50.138;14.332;2024-03-06T01:05:02;63.03;;;30.40;;
75716;SDS011;64333;50.138;14.332;2024-03-06T01:07:28;63.70;;;30.58;;
75716;SDS011;64333;50.138;14.332;2024-03-06T01:09:55;59.10;;;30.35;;
75716;SDS011;64333;50.138;14.332;2024-03-06T01:12:22;58.97;;;29.73;;
75716;SDS011;64333;50.138;14.332;2024-03-06T01:14:47;63.80;;;30.42;;
75716;SDS011;64333;50.138;14.332;2024-03-06T01:17:13;67.72;;;32.42;;
75716;SDS011;64333;50.138;14.332;2024-03-06T01:19:38;61.60;;;32.22;;
75716;SDS011;64333;50.138;14.332;2024-03-06T01:22:03;65.63;;;31.83;;
75716;SDS011;64333;50.138;14.332;2024-03-06T01:24:29;66.90;;;31.92;;
75716;SDS011;64333;50.138;14.332;2024-03-06T01:26:54;60.30;;;31.27;;
75716;SDS011;64333;50.138;14.332;2024-03-06T01:29:19;67.82;;;32.15;;
75716;SDS011;64333;50.138;14.332;2024-03-06T01:31:45;68.63;;;32.67;;
75716;SDS011;64333;50.138;14.332;2024-03-06T01:34:11;74.30;;;32.80;;
75716;SDS011;64333;50.138;14.332;2024-03-06T01:36:37;68.25;;;32.88;;
75716;SDS011;64333;50.138;14.332;2024-03-06T01:39:02;68.63;;;32.63;;
75716;SDS011;64333;50.138;14.332;2024-03-06T01:41:28;63.60;;;32.42;;
75716;SDS011;64333;50.138;14.332;2024-03-06T01:43:53;68.38;;;32.92;;
75716;SDS011;64333;50.138;14.332;2024-03-06T01:46:19;74.03;;;34.70;;
75716;SDS011;64333;50.138;14.332;2024-03-06T01:48:44;70.50;;;33.42;;
75716;SDS011;64333;50.138;14.332;2024-03-06T01:51:10;75.07;;;33.97;;
75716;SDS011;64333;50.138;14.332;2024-03-06T01:53:36;74.53;;;34.83;;
75716;SDS011;64333;50.138;14.332;2024-03-06T01:56:03;82.05;;;36.30;;
75716;SDS011;64333;50.138;14.332;2024-03-06T01:58:29;85.05;;;36.80;;
75716;SDS011;64333;50.138;14.332;2024-03-06T02:00:55;74.07;;;35.72;;
75716;SDS011;64333;50.138;14.332;2024-03-06T02:03:22;80.95;;;35.28;;
75716;SDS011;64333;50.138;14.332;2024-03-06T02:05:50;76.43;;;35.60;;
75716;SDS011;64333;50.138;14.332;2024-03-06T02:08:17;82.18;;;33.45;;
75716;SDS011;64333;50.138;14.332;2024-03-06T02:10:43;81.20;;;35.67;;
75716;SDS011;64333;50.138;14.332;2024-03-06T02:13:09;76.68;;;35.92;;
75716;SDS011;64333;50.138;14.332;2024-03-06T02:15:35;77.03;;;35.35;;
75716;SDS011;64333;50.138;14.332;2024-03-06T02:18:04;74.93;;;33.80;;
75716;SDS011;64333;50.138;14.332;2024-03-06T02:20:30;75.13;;;33.00;;
75716;SDS011;64333;50.138;14.332;2024-03-06T02:22:55;69.97;;;32.50;;
75716;SDS011;64333;50.138;14.332;2024-03-06T02:25:21;67.43;;;33.15;;
75716;SDS011;64333;50.138;14.332;2024-03-06T02:27:46;66.57;;;31.77;;
75716;SDS011;64333;50.138;14.332;2024-03-06T02:30:13;65.25;;;29.17;;
75716;SDS011;64333;50.138;14.332;2024-03-06T02:32:38;61.78;;;30.65;;
75716;SDS011;64333;50.138;14.332;2024-03-06T02:35:04;74.30;;;31.30;;
75716;SDS011;64333;50.138;14.332;2024-03-06T02:37:33;67.72;;;30.23;;
75716;SDS011;64333;50.138;14.332;2024-03-06T02:39:59;74.70;;;34.13;;
75716;SDS011;64333;50.138;14.332;2024-03-06T02:42:24;74.28;;;30.13;;
75716;SDS011;64333;50.138;14.332;2024-03-06T02:44:50;72.45;;;33.67;;
75716;SDS011;64333;50.138;14.332;2024-03-06T02:47:15;77.32;;;32.10;;
75716;SDS011;64333;50.138;14.332;2024-03-06T02:49:40;68.45;;;32.22;;
75716;SDS011;64333;50.138;14.332;2024-03-06T02:52:06;71.78;;;31.88;;
75716;SDS011;64333;50.138;14.332;2024-03-06T02:54:31;69.25;;;30.30;;
75716;SDS011;64333;50.138;14.332;2024-03-06T02:56:57;67.88;;;32.38;;
75716;SDS011;64333;50.138;14.332;2024-03-06T02:59:22;65.32;;;30.77;;
75716;SDS011;64333;50.138;14.332;2024-03-06T03:01:48;61.65;;;30.25;;
75716;SDS011;64333;50.138;14.332;2024-03-06T03:04:14;60.85;;;30.40;;
75716;SDS011;64333;50.138;14.332;2024-03-06T03:06:39;62.75;;;29.70;;
75716;SDS011;64333;50.138;14.332;2024-03-06T03:09:05;58.30;;;29.63;;
75716;SDS011;64333;50.138;14.332;2024-03-06T03:11:30;63.60;;;31.00;;
75716;SDS011;64333;50.138;14.332;2024-03-06T03:13:57;61.45;;;29.17;;
75716;SDS011;64333;50.138;14.332;2024-03-06T03:16:22;56.30;;;28.75;;
75716;SDS011;64333;50.138;14.332;2024-03-06T03:18:47;54.20;;;26.67;;
75716;SDS011;64333;50.138;14.332;2024-03-06T03:21:13;51.95;;;26.23;;
75716;SDS011;64333;50.138;14.332;2024-03-06T03:23:39;58.70;;;29.10;;
75716;SDS011;64333;50.138;14.332;2024-03-06T03:26:05;57.50;;;27.00;;
75716;SDS011;64333;50.138;14.332;2024-03-06T03:28:31;60.28;;;28.92;;
75716;SDS011;64333;50.138;14.332;2024-03-06T03:30:57;58.15;;;29.05;;
75716;SDS011;64333;50.138;14.332;2024-03-06T03:33:23;57.53;;;28.52;;
75716;SDS011;64333;50.138;14.332;2024-03-06T03:35:49;56.40;;;27.65;;
75716;SDS011;64333;50.138;14.332;2024-03-06T03:38:14;53.95;;;27.15;;
75716;SDS011;64333;50.138;14.332;2024-03-06T03:40:40;50.28;;;25.77;;
75716;SDS011;64333;50.138;14.332;2024-03-06T03:43:05;48.33;;;25.88;;
75716;SDS011;64333;50.138;14.332;2024-03-06T03:45:33;46.58;;;25.55;;
75716;SDS011;64333;50.138;14.332;2024-03-06T03:48:02;48.58;;;26.40;;
75716;SDS011;64333;50.138;14.332;2024-03-06T03:50:28;52.65;;;25.73;;
75716;SDS011;64333;50.138;14.332;2024-03-06T03:52:54;52.40;;;26.30;;
75716;SDS011;64333;50.138;14.332;2024-03-06T03:55:20;50.35;;;25.70;;
75716;SDS011;64333;50.138;14.332;2024-03-06T03:57:45;50.58;;;25.80;;
75716;SDS011;64333;50.138;14.332;2024-03-06T04:00:11;53.88;;;28.60;;
75716;SDS011;64333;50.138;14.332;2024-03-06T04:02:38;54.15;;;27.80;;
75716;SDS011;64333;50.138;14.332;2024-03-06T04:05:03;50.88;;;25.27;;
75716;SDS011;64333;50.138;14.332;2024-03-06T04:07:29;52.90;;;26.33;;
75716;SDS011;64333;50.138;14.332;2024-03-06T04:09:55;55.10;;;26.48;;
75716;SDS011;64333;50.138;14.332;2024-03-06T04:12:20;53.85;;;26.15;;
75716;SDS011;64333;50.138;14.332;2024-03-06T04:14:45;51.63;;;24.27;;
75716;SDS011;64333;50.138;14.332;2024-03-06T04:17:11;49.88;;;25.80;;
75716;SDS011;64333;50.138;14.332;2024-03-06T04:19:36;54.90;;;28.20;;
75716;SDS011;64333;50.138;14.332;2024-03-06T04:22:01;51.78;;;27.20;;
75716;SDS011;64333;50.138;14.332;2024-03-06T04:24:27;50.80;;;25.27;;
75716;SDS011;64333;50.138;14.332;2024-03-06T04:26:53;48.55;;;25.90;;
75716;SDS011;64333;50.138;14.332;2024-03-06T04:29:18;53.30;;;27.48;;
75716;SDS011;64333;50.138;14.332;2024-03-06T04:31:43;47.40;;;25.52;;
75716;SDS011;64333;50.138;14.332;2024-03-06T04:34:09;47.95;;;25.05;;
75716;SDS011;64333;50.138;14.332;2024-03-06T04:36:34;57.55;;;26.60;;
75716;SDS011;64333;50.138;14.332;2024-03-06T04:38:59;50.38;;;27.00;;
75716;SDS011;64333;50.138;14.332;2024-03-06T04:41:25;53.05;;;26.63;;
75716;SDS011;64333;50.138;14.332;2024-03-06T04:43:50;49.13;;;26.23;;
75716;SDS011;64333;50.138;14.332;2024-03-06T04:46:17;48.95;;;26.05;;
75716;SDS011;64333;50.138;14.332;2024-03-06T04:48:42;52.72;;;27.67;;
75716;SDS011;64333;50.138;14.332;2024-03-06T04:51:07;61.53;;;28.52;;
75716;SDS011;64333;50.138;14.332;2024-03-06T04:53:35;51.03;;;25.23;;
75716;SDS011;64333;50.138;14.332;2024-03-06T04:56:00;55.95;;;27.75;;
75716;SDS011;64333;50.138;14.332;2024-03-06T04:58:26;56.08;;;28.40;;
75716;SDS011;64333;50.138;14.332;2024-03-06T05:00:51;63.45;;;30.70;;
75716;SDS011;64333;50.138;14.332;2024-03-06T05:03:16;58.88;;;30.83;;
75716;SDS011;64333;50.138;14.332;2024-03-06T05:05:41;61.30;;;30.77;;
75716;SDS011;64333;50.138;14.332;2024-03-06T05:08:07;58.80;;;29.77;;
75716;SDS011;64333;50.138;14.332;2024-03-06T05:10:32;56.22;;;28.73;;
75716;SDS011;64333;50.138;14.332;2024-03-06T05:12:58;51.90;;;27.52;;
75716;SDS011;64333;50.138;14.332;2024-03-06T05:15:23;58.42;;;29.00;;
75716;SDS011;64333;50.138;14.332;2024-03-06T05:17:48;56.67;;;30.33;;
75716;SDS011;64333;50.138;14.332;2024-03-06T05:20:14;56.38;;;28.83;;
75716;SDS011;64333;50.138;14.332;2024-03-06T05:22:39;55.05;;;29.67;;
75716;SDS011;64333;50.138;14.332;2024-03-06T05:25:04;56.20;;;29.00;;
75716;SDS011;64333;50.138;14.332;2024-03-06T05:27:30;61.50;;;31.80;;
75716;SDS011;64333;50.138;14.332;2024-03-06T05:29:57;86.15;;;43.13;;
75716;SDS011;64333;50.138;14.332;2024-03-06T05:32:22;58.95;;;30.17;;
75716;SDS011;64333;50.138;14.332;2024-03-06T05:34:47;57.67;;;30.10;;
75716;SDS011;64333;50.138;14.332;2024-03-06T05:37:13;55.30;;;28.15;;
75716;SDS011;64333;50.138;14.332;2024-03-06T05:39:38;56.50;;;29.25;;
75716;SDS011;64333;50.138;14.332;2024-03-06T05:42:04;57.75;;;28.20;;
75716;SDS011;64333;50.138;14.332;2024-03-06T05:44:30;53.35;;;28.63;;
75716;SDS011;64333;50.138;14.332;2024-03-06T05:47:00;54.70;;;29.73;;
75716;SDS011;64333;50.138;14.332;2024-03-06T05:49:26;63.00;;;31.83;;
75716;SDS011;64333;50.138;14.332;2024-03-06T05:51:52;65.25;;;33.45;;
75716;SDS011;64333;50.138;14.332;2024-03-06T05:54:18;61.40;;;31.42;;
75716;SDS011;64333;50.138;14.332;2024-03-06T05:56:44;59.10;;;28.58;;
75716;SDS011;64333;50.138;14.332;2024-03-06T05:59:10;59.45;;;29.25;;
75716;SDS011;64333;50.138;14.332;2024-03-06T06:01:35;61.63;;;32.28;;
75716;SDS011;64333;50.138;14.332;2024-03-06T06:04:01;63.63;;;30.52;;
75716;SDS011;64333;50.138;14.332;2024-03-06T06:06:27;60.70;;;33.47;;
75716;SDS011;64333;50.138;14.332;2024-03-06T06:08:52;61.10;;;31.40;;
75716;SDS011;64333;50.138;14.332;2024-03-06T06:11:18;60.65;;;31.38;;
75716;SDS011;64333;50.138;14.332;2024-03-06T06:13:44;57.70;;;28.23;;
75716;SDS011;64333;50.138;14.332;2024-03-06T06:16:09;52.42;;;29.33;;
75716;SDS011;64333;50.138;14.332;2024-03-06T06:18:35;54.50;;;27.92;;
75716;SDS011;64333;50.138;14.332;2024-03-06T06:21:00;54.30;;;28.60;;
75716;SDS011;64333;50.138;14.332;2024-03-06T06:23:26;54.25;;;28.52;;
75716;SDS011;64333;50.138;14.332;2024-03-06T06:25:51;55.13;;;28.58;;
75716;SDS011;64333;50.138;14.332;2024-03-06T06:28:17;56.63;;;28.42;;
75716;SDS011;64333;50.138;14.332;2024-03-06T06:30:42;52.25;;;27.63;;
75716;SDS011;64333;50.138;14.332;2024-03-06T06:33:08;52.80;;;27.95;;
75716;SDS011;64333;50.138;14.332;2024-03-06T06:35:33;49.95;;;26.00;;
75716;SDS011;64333;50.138;14.332;2024-03-06T06:38:02;52.33;;;27.25;;
75716;SDS011;64333;50.138;14.332;2024-03-06T06:40:27;53.25;;;28.13;;
75716;SDS011;64333;50.138;14.332;2024-03-06T06:42:53;50.40;;;25.80;;
75716;SDS011;64333;50.138;14.332;2024-03-06T06:45:19;53.20;;;27.67;;
75716;SDS011;64333;50.138;14.332;2024-03-06T06:47:46;55.85;;;28.33;;
75716;SDS011;64333;50.138;14.332;2024-03-06T06:50:12;48.22;;;26.33;;
75716;SDS011;64333;50.138;14.332;2024-03-06T06:52:38;50.75;;;25.65;;
75716;SDS011;64333;50.138;14.332;2024-03-06T06:55:04;50.05;;;25.95;;
75716;SDS011;64333;50.138;14.332;2024-03-06T06:57:31;52.60;;;26.73;;
75716;SDS011;64333;50.138;14.332;2024-03-06T06:59:58;44.35;;;23.30;;
75716;SDS011;64333;50.138;14.332;2024-03-06T07:02:23;45.38;;;24.85;;
75716;SDS011;64333;50.138;14.332;2024-03-06T07:04:49;50.28;;;25.58;;
75716;SDS011;64333;50.138;14.332;2024-03-06T07:07:14;47.88;;;25.50;;
75716;SDS011;64333;50.138;14.332;2024-03-06T07:09:40;49.58;;;26.30;;
75716;SDS011;64333;50.138;14.332;2024-03-06T07:12:05;46.03;;;25.58;;
75716;SDS011;64333;50.138;14.332;2024-03-06T07:14:32;48.25;;;25.15;;
75716;SDS011;64333;50.138;14.332;2024-03-06T07:16:58;51.28;;;26.80;;
75716;SDS011;64333;50.138;14.332;2024-03-06T07:19:23;54.90;;;25.42;;
75716;SDS011;64333;50.138;14.332;2024-03-06T07:21:49;55.55;;;25.60;;
75716;SDS011;64333;50.138;14.332;2024-03-06T07:24:14;48.08;;;24.67;;
75716;SDS011;64333;50.138;14.332;2024-03-06T07:26:39;44.45;;;24.50;;
75716;SDS011;64333;50.138;14.332;2024-03-06T07:29:05;49.03;;;26.73;;
75716;SDS011;64333;50.138;14.332;2024-03-06T07:31:38;52.67;;;25.27;;
75716;SDS011;64333;50.138;14.332;2024-03-06T07:34:04;49.15;;;26.15;;
75716;SDS011;64333;50.138;14.332;2024-03-06T07:36:31;48.22;;;23.98;;
75716;SDS011;64333;50.138;14.332;2024-03-06T07:38:57;45.42;;;23.60;;
75716;SDS011;64333;50.138;14.332;2024-03-06T07:41:22;43.85;;;23.65;;
75716;SDS011;64333;50.138;14.332;2024-03-06T07:43:48;45.50;;;24.45;;
75716;SDS011;64333;50.138;14.332;2024-03-06T07:46:13;43.15;;;24.55;;
75716;SDS011;64333;50.138;14.332;2024-03-06T07:48:41;45.50;;;24.55;;
75716;SDS011;64333;50.138;14.332;2024-03-06T07:51:08;44.63;;;24.63;;
75716;SDS011;64333;50.138;14.332;2024-03-06T07:53:34;43.88;;;24.65;;
75716;SDS011;64333;50.138;14.332;2024-03-06T07:55:59;42.88;;;24.65;;
75716;SDS011;64333;50.138;14.332;2024-03-06T07:58:25;46.58;;;25.67;;
75716;SDS011;64333;50.138;14.332;2024-03-06T08:00:52;46.58;;;25.80;;
75716;SDS011;64333;50.138;14.332;2024-03-06T08:03:21;47.33;;;24.83;;
75716;SDS011;64333;50.138;14.332;2024-03-06T08:05:51;40.83;;;23.77;;
75716;SDS011;64333;50.138;14.332;2024-03-06T08:08:20;47.38;;;24.90;;
75716;SDS011;64333;50.138;14.332;2024-03-06T08:10:46;46.92;;;25.17;;
75716;SDS011;64333;50.138;14.332;2024-03-06T08:13:11;42.85;;;23.90;;
75716;SDS011;64333;50.138;14.332;2024-03-06T08:15:37;44.78;;;23.73;;
75716;SDS011;64333;50.138;14.332;2024-03-06T08:18:03;44.97;;;24.02;;
75716;SDS011;64333;50.138;14.332;2024-03-06T08:20:28;47.40;;;25.33;;
75716;SDS011;64333;50.138;14.332;2024-03-06T08:22:54;45.13;;;25.27;;
75716;SDS011;64333;50.138;14.332;2024-03-06T08:25:21;45.55;;;23.90;;
75716;SDS011;64333;50.138;14.332;2024-03-06T08:27:46;42.88;;;23.63;;
75716;SDS011;64333;50.138;14.332;2024-03-06T08:30:12;45.55;;;24.70;;
75716;SDS011;64333;50.138;14.332;2024-03-06T08:32:38;43.22;;;24.15;;
75716;SDS011;64333;50.138;14.332;2024-03-06T08:35:04;45.67;;;24.45;;
75716;SDS011;64333;50.138;14.332;2024-03-06T08:37:31;49.03;;;23.88;;
75716;SDS011;64333;50.138;14.332;2024-03-06T08:39:58;42.65;;;24.48;;
75716;SDS011;64333;50.138;14.332;2024-03-06T08:42:24;45.55;;;23.88;;
75716;SDS011;64333;50.138;14.332;2024-03-06T08:44:49;43.72;;;24.30;;
75716;SDS011;64333;50.138;14.332;2024-03-06T08:47:14;43.05;;;24.55;;
75716;SDS011;64333;50.138;14.332;2024-03-06T08:49:40;46.17;;;24.92;;
75716;SDS011;64333;50.138;14.332;2024-03-06T08:52:06;48.97;;;24.60;;
75716;SDS011;64333;50.138;14.332;2024-03-06T08:54:31;43.17;;;24.23;;
75716;SDS011;64333;50.138;14.332;2024-03-06T08:56:57;46.65;;;23.92;;
75716;SDS011;64333;50.138;14.332;2024-03-06T08:59:24;45.55;;;24.15;;
75716;SDS011;64333;50.138;14.332;2024-03-06T09:01:53;45.75;;;25.25;;
75716;SDS011;64333;50.138;14.332;2024-03-06T09:04:19;43.50;;;24.05;;
75716;SDS011;64333;50.138;14.332;2024-03-06T09:06:45;41.10;;;23.67;;
75716;SDS011;64333;50.138;14.332;2024-03-06T09:09:10;42.20;;;23.65;;
75716;SDS011;64333;50.138;14.332;2024-03-06T09:11:35;36.30;;;22.45;;
75716;SDS011;64333;50.138;14.332;2024-03-06T09:14:01;38.00;;;23.75;;
75716;SDS011;64333;50.138;14.332;2024-03-06T09:16:26;40.03;;;23.95;;
75716;SDS011;64333;50.138;14.332;2024-03-06T09:18:52;37.58;;;22.60;;
75716;SDS011;64333;50.138;14.332;2024-03-06T09:21:17;40.38;;;23.35;;
75716;SDS011;64333;50.138;14.332;2024-03-06T09:23:43;36.47;;;23.17;;
75716;SDS011;64333;50.138;14.332;2024-03-06T09:26:08;36.45;;;22.88;;
75716;SDS011;64333;50.138;14.332;2024-03-06T09:28:33;35.88;;;23.80;;
75716;SDS011;64333;50.138;14.332;2024-03-06T09:30:58;33.85;;;24.30;;
75716;SDS011;64333;50.138;14.332;2024-03-06T09:33:25;39.03;;;23.58;;
75716;SDS011;64333;50.138;14.332;2024-03-06T09:35:50;35.95;;;23.33;;
75716;SDS011;64333;50.138;14.332;2024-03-06T09:38:15;36.45;;;23.20;;
75716;SDS011;64333;50.138;14.332;2024-03-06T09:40:41;35.60;;;22.90;;
75716;SDS011;64333;50.138;14.332;2024-03-06T09:43:07;36.38;;;23.75;;
75716;SDS011;64333;50.138;14.332;2024-03-06T09:45:32;38.00;;;23.50;;
75716;SDS011;64333;50.138;14.332;2024-03-06T09:47:58;36.63;;;23.55;;
75716;SDS011;64333;50.138;14.332;2024-03-06T09:50:24;37.08;;;23.25;;
75716;SDS011;64333;50.138;14.332;2024-03-06T09:52:51;36.90;;;22.92;;
75716;SDS011;64333;50.138;14.332;2024-03-06T09:55:20;38.88;;;23.33;;
75716;SDS011;64333;50.138;14.332;2024-03-06T09:57:46;38.25;;;23.27;;
75716;SDS011;64333;50.138;14.332;2024-03-06T10:00:13;33.65;;;23.05;;
75716;SDS011;64333;50.138;14.332;2024-03-06T10:02:51;36.40;;;22.35;;
75716;SDS011;64333;50.138;14.332;2024-03-06T10:05:28;37.15;;;24.20;;
75716;SDS011;64333;50.138;14.332;2024-03-06T10:07:55;36.13;;;23.95;;
75716;SDS011;64333;50.138;14.332;2024-03-06T10:10:21;40.40;;;24.58;;
75716;SDS011;64333;50.138;14.332;2024-03-06T10:12:47;38.15;;;25.52;;
75716;SDS011;64333;50.138;14.332;2024-03-06T10:15:14;41.05;;;23.90;;
75716;SDS011;64333;50.138;14.332;2024-03-06T10:17:40;39.13;;;23.88;;
75716;SDS011;64333;50.138;14.332;2024-03-06T10:20:22;40.30;;;24.27;;
75716;SDS011;64333;50.138;14.332;2024-03-06T10:22:48;40.65;;;25.23;;
75716;SDS011;64333;50.138;14.332;2024-03-06T10:25:17;39.85;;;22.98;;
75716;SDS011;64333;50.138;14.332;2024-03-06T10:27:43;35.60;;;22.50;;
75716;SDS011;64333;50.138;14.332;2024-03-06T10:30:09;36.15;;;23.17;;
75716;SDS011;64333;50.138;14.332;2024-03-06T10:32:37;40.03;;;24.13;;
75716;SDS011;64333;50.138;14.332;2024-03-06T10:35:04;38.75;;;24.17;;
75716;SDS011;64333;50.138;14.332;2024-03-06T10:37:31;38.80;;;24.55;;
75716;SDS011;64333;50.138;14.332;2024-03-06T10:39:59;34.88;;;23.63;;
75716;SDS011;64333;50.138;14.332;2024-03-06T10:42:31;38.40;;;24.92;;
75716;SDS011;64333;50.138;14.332;2024-03-06T10:44:58;38.35;;;24.25;;
75716;SDS011;64333;50.138;14.332;2024-03-06T10:47:25;39.83;;;25.02;;
75716;SDS011;64333;50.138;14.332;2024-03-06T10:49:53;39.65;;;25.08;;
75716;SDS011;64333;50.138;14.332;2024-03-06T10:52:20;38.83;;;23.95;;
75716;SDS011;64333;50.138;14.332;2024-03-06T10:54:46;36.22;;;23.15;;
75716;SDS011;64333;50.138;14.332;2024-03-06T10:57:13;37.03;;;23.42;;
75716;SDS011;64333;50.138;14.332;2024-03-06T10:59:39;38.92;;;23.85;;
75716;SDS011;64333;50.138;14.332;2024-03-06T11:02:07;38.00;;;23.42;;
75716;SDS011;64333;50.138;14.332;2024-03-06T11:04:34;34.95;;;22.95;;
75716;SDS011;64333;50.138;14.332;2024-03-06T11:07:00;36.03;;;22.85;;
75716;SDS011;64333;50.138;14.332;2024-03-06T11:09:27;38.72;;;23.00;;
75716;SDS011;64333;50.138;14.332;2024-03-06T11:12:14;37.75;;;22.80;;
75716;SDS011;64333;50.138;14.332;2024-03-06T11:15:09;34.38;;;22.05;;
75716;SDS011;64333;50.138;14.332;2024-03-06T11:17:38;34.72;;;21.83;;
75716;SDS011;64333;50.138;14.332;2024-03-06T11:23:31;33.88;;;20.35;;
75716;SDS011;64333;50.138;14.332;2024-03-06T11:28:28;36.20;;;22.55;;
75716;SDS011;64333;50.138;14.332;2024-03-06T11:33:34;32.70;;;19.30;;
75716;SDS011;64333;50.138;14.332;2024-03-06T11:38:42;35.13;;;20.42;;
75716;SDS011;64333;50.138;14.332;2024-03-06T11:41:08;33.17;;;19.70;;
75716;SDS011;64333;50.138;14.332;2024-03-06T11:43:41;34.55;;;19.08;;
75716;SDS011;64333;50.138;14.332;2024-03-06T11:46:10;33.40;;;19.65;;
75716;SDS011;64333;50.138;14.332;2024-03-06T11:48:36;29.42;;;17.77;;
75716;SDS011;64333;50.138;14.332;2024-03-06T11:51:02;29.55;;;17.05;;
75716;SDS011;64333;50.138;14.332;2024-03-06T11:53:32;31.27;;;18.00;;
75716;SDS011;64333;50.138;14.332;2024-03-06T11:55:59;37.08;;;20.05;;
75716;SDS011;64333;50.138;14.332;2024-03-06T11:58:24;34.85;;;18.98;;
75716;SDS011;64333;50.138;14.332;2024-03-06T12:00:50;34.70;;;18.02;;
75716;SDS011;64333;50.138;14.332;2024-03-06T12:03:17;35.88;;;19.13;;
75716;SDS011;64333;50.138;14.332;2024-03-06T12:05:44;34.80;;;19.17;;
75716;SDS011;64333;50.138;14.332;2024-03-06T12:08:11;30.25;;;16.92;;
75716;SDS011;64333;50.138;14.332;2024-03-06T12:10:37;31.48;;;15.98;;
75716;SDS011;64333;50.138;14.332;2024-03-06T12:13:04;28.80;;;16.55;;
75716;SDS011;64333;50.138;14.332;2024-03-06T12:15:30;27.55;;;15.85;;
75716;SDS011;64333;50.138;14.332;2024-03-06T12:17:55;26.90;;;15.52;;
75716;SDS011;64333;50.138;14.332;2024-03-06T12:20:21;28.52;;;16.08;;
75716;SDS011;64333;50.138;14.332;2024-03-06T12:22:50;26.10;;;16.75;;
75716;SDS011;64333;50.138;14.332;2024-03-06T12:25:23;25.08;;;15.63;;
75716;SDS011;64333;50.138;14.332;2024-03-06T12:27:49;28.08;;;16.48;;
75716;SDS011;64333;50.138;14.332;2024-03-06T12:30:16;23.15;;;14.73;;
75716;SDS011;64333;50.138;14.332;2024-03-06T12:32:43;22.40;;;14.40;;
75716;SDS011;64333;50.138;14.332;2024-03-06T12:35:09;25.65;;;16.52;;
75716;SDS011;64333;50.138;14.332;2024-03-06T12:37:34;21.08;;;14.95;;
75716;SDS011;64333;50.138;14.332;2024-03-06T12:40:00;21.85;;;14.27;;
75716;SDS011;64333;50.138;14.332;2024-03-06T12:42:26;19.77;;;13.60;;
75716;SDS011;64333;50.138;14.332;2024-03-06T12:44:51;21.75;;;14.35;;
75716;SDS011;64333;50.138;14.332;2024-03-06T12:47:17;22.45;;;14.00;;
75716;SDS011;64333;50.138;14.332;2024-03-06T12:49:42;23.27;;;15.43;;
75716;SDS011;64333;50.138;14.332;2024-03-06T12:52:08;24.45;;;15.50;;
75716;SDS011;64333;50.138;14.332;2024-03-06T12:54:34;22.77;;;14.65;;
75716;SDS011;64333;50.138;14.332;2024-03-06T12:56:59;23.92;;;13.80;;
75716;SDS011;64333;50.138;14.332;2024-03-06T12:59:25;22.17;;;13.25;;
75716;SDS011;64333;50.138;14.332;2024-03-06T13:01:50;23.67;;;13.98;;
75716;SDS011;64333;50.138;14.332;2024-03-06T13:04:15;23.42;;;12.93;;
75716;SDS011;64333;50.138;14.332;2024-03-06T13:06:41;23.00;;;13.05;;
75716;SDS011;64333;50.138;14.332;2024-03-06T13:09:06;21.23;;;13.30;;
75716;SDS011;64333;50.138;14.332;2024-03-06T13:11:31;22.50;;;13.77;;
75716;SDS011;64333;50.138;14.332;2024-03-06T13:13:57;22.00;;;13.85;;
75716;SDS011;64333;50.138;14.332;2024-03-06T13:16:23;24.17;;;14.60;;
75716;SDS011;64333;50.138;14.332;2024-03-06T13:18:48;24.75;;;14.10;;
75716;SDS011;64333;50.138;14.332;2024-03-06T13:21:19;23.65;;;15.10;;
75716;SDS011;64333;50.138;14.332;2024-03-06T13:23:45;24.15;;;14.38;;
75716;SDS011;64333;50.138;14.332;2024-03-06T13:26:10;25.75;;;15.27;;
75716;SDS011;64333;50.138;14.332;2024-03-06T13:28:37;25.85;;;15.65;;
75716;SDS011;64333;50.138;14.332;2024-03-06T13:31:03;24.45;;;16.23;;
75716;SDS011;64333;50.138;14.332;2024-03-06T13:33:31;29.85;;;17.02;;
75716;SDS011;64333;50.138;14.332;2024-03-06T13:35:56;36.28;;;19.85;;
75716;SDS011;64333;50.138;14.332;2024-03-06T13:38:22;38.45;;;20.77;;
75716;SDS011;64333;50.138;14.332;2024-03-06T13:40:47;40.10;;;20.92;;
75716;SDS011;64333;50.138;14.332;2024-03-06T13:43:12;38.53;;;19.40;;
75716;SDS011;64333;50.138;14.332;2024-03-06T13:45:38;35.58;;;19.13;;
75716;SDS011;64333;50.138;14.332;2024-03-06T13:48:14;32.50;;;18.42;;
75716;SDS011;64333;50.138;14.332;2024-03-06T13:50:42;31.50;;;17.63;;
75716;SDS011;64333;50.138;14.332;2024-03-06T13:53:09;30.00;;;18.02;;
75716;SDS011;64333;50.138;14.332;2024-03-06T13:55:34;31.35;;;16.90;;
75716;SDS011;64333;50.138;14.332;2024-03-06T13:58:00;30.80;;;15.77;;
75716;SDS011;64333;50.138;14.332;2024-03-06T14:00:26;27.17;;;16.35;;
75716;SDS011;64333;50.138;14.332;2024-03-06T14:02:52;24.95;;;15.85;;
75716;SDS011;64333;50.138;14.332;2024-03-06T14:05:17;26.83;;;15.02;;
75716;SDS011;64333;50.138;14.332;2024-03-06T14:07:44;25.08;;;15.68;;
75716;SDS011;64333;50.138;14.332;2024-03-06T14:10:10;25.00;;;14.15;;
75716;SDS011;64333;50.138;14.332;2024-03-06T14:12:36;24.15;;;13.70;;
75716;SDS011;64333;50.138;14.332;2024-03-06T14:15:02;23.13;;;14.10;;